createdAt,value
2018-11-25T00:00:24.621Z,1.40
2018-11-25T00:02:54.258Z,1.30
2018-11-25T00:05:23.604Z,1.30
2018-11-25T00:07:53.224Z,1.40
2018-11-25T00:10:23.071Z,1.50
2018-11-25T00:12:52.652Z,1.60
2018-11-25T00:15:21.830Z,1.50
2018-11-25T00:17:51.107Z,1.50
2018-11-25T00:20:20.636Z,1.60
2018-11-25T00:22:50.516Z,1.60
2018-11-25T00:25:20.145Z,1.60
2018-11-25T00:27:49.900Z,1.60
2018-11-25T00:30:19.389Z,1.70
2018-11-25T00:32:48.701Z,1.70
2018-11-25T00:35:17.994Z,1.70
2018-11-25T00:37:48.254Z,1.60
2018-11-25T00:40:17.089Z,1.60
2018-11-25T00:42:46.390Z,1.60
2018-11-25T00:45:18.095Z,1.50
2018-11-25T00:47:48.064Z,1.50
2018-11-25T00:50:17.682Z,1.50
2018-11-25T00:52:46.947Z,1.60
2018-11-25T00:55:17.239Z,1.50
2018-11-25T00:57:46.582Z,1.50
2018-11-25T01:00:18.333Z,1.50
2018-11-25T01:02:49.267Z,1.50
2018-11-25T01:05:18.695Z,1.50
2018-11-25T01:07:48.036Z,1.60
2018-11-25T01:10:17.378Z,1.50
2018-11-25T01:12:46.916Z,1.60
2018-11-25T01:15:17.447Z,1.60
2018-11-25T01:17:46.793Z,1.70
2018-11-25T01:20:19.729Z,1.70
2018-11-25T01:22:49.034Z,1.70
2018-11-25T01:25:18.683Z,1.70
2018-11-25T01:27:47.965Z,1.60
2018-11-25T01:30:17.686Z,1.50
2018-11-25T01:32:47.190Z,1.50
2018-11-25T01:35:16.524Z,1.40
2018-11-25T01:37:45.836Z,1.40
2018-11-25T01:40:18.114Z,1.50
2018-11-25T01:42:47.405Z,1.40
2018-11-25T01:45:18.030Z,1.40
2018-11-25T01:47:47.695Z,1.40
2018-11-25T01:50:17.792Z,1.30
2018-11-25T01:52:48.190Z,1.20
2018-11-25T01:55:18.506Z,1.00
2018-11-25T01:57:48.137Z,0.80
2018-11-25T02:00:19.771Z,0.60
2018-11-25T02:02:49.374Z,0.40
2018-11-25T02:05:19.054Z,0.30
2018-11-25T02:07:48.384Z,0.30
2018-11-25T02:10:19.138Z,0.30
2018-11-25T02:12:48.503Z,0.30
2018-11-25T02:15:18.001Z,0.20
2018-11-25T02:17:47.456Z,0.20
2018-11-25T02:20:18.294Z,0.10
2018-11-25T02:22:47.658Z,0.10
2018-11-25T02:25:17.202Z,0.00
2018-11-25T02:27:46.881Z,0.00
2018-11-25T02:30:16.776Z,0.10
2018-11-25T02:32:47.031Z,0.10
2018-11-25T02:35:17.340Z,0.00
2018-11-25T02:37:47.048Z,0.00
2018-11-25T02:40:17.434Z,0.00
2018-11-25T02:42:46.695Z,0.10
2018-11-25T02:45:18.007Z,0.00
2018-11-25T02:47:47.491Z,0.00
2018-11-25T02:50:32.476Z,0.00
2018-11-25T02:53:04.431Z,-0.10
2018-11-25T02:55:33.796Z,-0.10
2018-11-25T02:58:03.323Z,-0.10
2018-11-25T03:00:33.344Z,-0.10
2018-11-25T03:03:03.068Z,-0.10
2018-11-25T03:05:32.334Z,-0.10
2018-11-25T03:08:01.660Z,-0.20
2018-11-25T03:10:31.214Z,-0.10
2018-11-25T03:13:01.064Z,0.00
2018-11-25T03:15:30.339Z,0.00
2018-11-25T03:17:59.858Z,0.00
2018-11-25T03:20:29.830Z,0.10
2018-11-25T03:22:59.283Z,0.10
2018-11-25T03:25:28.953Z,0.00
2018-11-25T03:27:58.504Z,-0.10
2018-11-25T03:30:28.558Z,-0.10
2018-11-25T03:32:57.862Z,-0.10
2018-11-25T03:35:27.499Z,-0.10
2018-11-25T03:37:57.095Z,-0.20
2018-11-25T03:40:26.607Z,-0.30
2018-11-25T03:42:56.176Z,-0.30
2018-11-25T03:45:25.933Z,-0.30
2018-11-25T03:47:55.516Z,-0.40
2018-11-25T03:50:24.861Z,-0.40
2018-11-25T03:52:54.847Z,-0.40
2018-11-25T03:55:24.385Z,-0.30
2018-11-25T03:57:53.968Z,-0.40
2018-11-25T04:00:23.510Z,-0.30
2018-11-25T04:02:54.534Z,-0.30
2018-11-25T04:05:23.821Z,-0.40
2018-11-25T04:07:53.373Z,-0.40
2018-11-25T04:10:22.692Z,-0.30
2018-11-25T04:12:52.924Z,-0.10
2018-11-25T04:15:22.477Z,-0.10
2018-11-25T04:17:52.155Z,-0.10
2018-11-25T04:20:22.061Z,-0.20
2018-11-25T04:22:51.971Z,-0.10
2018-11-25T04:25:21.538Z,-0.10
2018-11-25T04:27:51.789Z,-0.10
2018-11-25T04:30:21.015Z,-0.20
2018-11-25T04:32:51.155Z,-0.20
2018-11-25T04:35:20.797Z,-0.40
2018-11-25T04:37:50.192Z,-0.30
2018-11-25T04:40:19.628Z,-0.40
2018-11-25T04:42:49.117Z,-0.40
2018-11-25T04:45:18.627Z,-0.40
2018-11-25T04:47:48.545Z,-0.40
2018-11-25T04:50:19.138Z,-0.30
2018-11-25T04:52:49.127Z,-0.30
2018-11-25T04:55:19.313Z,-0.20
2018-11-25T04:57:50.130Z,-0.30
2018-11-25T05:00:19.939Z,-0.20
2018-11-25T05:02:50.542Z,-0.20
2018-11-25T05:05:20.310Z,-0.10
2018-11-25T05:07:49.868Z,-0.10
2018-11-25T05:10:19.688Z,0.00
2018-11-25T05:12:49.297Z,-0.10
2018-11-25T05:15:20.825Z,-0.10
2018-11-25T05:17:50.903Z,0.00
2018-11-25T05:20:20.932Z,0.00
2018-11-25T05:22:50.275Z,-0.10
2018-11-25T05:25:20.546Z,-0.20
2018-11-25T05:27:51.232Z,-0.10
2018-11-25T05:30:21.197Z,-0.10
2018-11-25T05:32:50.514Z,-0.20
2018-11-25T05:35:21.303Z,-0.10
2018-11-25T05:37:51.188Z,-0.10
2018-11-25T05:40:20.769Z,0.00
2018-11-25T05:42:51.332Z,0.10
2018-11-25T05:45:20.741Z,0.10
2018-11-25T05:47:50.322Z,0.10
2018-11-25T05:50:21.045Z,0.10
2018-11-25T05:52:50.332Z,0.10
2018-11-25T05:55:20.261Z,0.20
2018-11-25T05:57:49.574Z,0.10
2018-11-25T06:00:26.603Z,0.10
2018-11-25T06:02:56.144Z,0.10
2018-11-25T06:05:25.176Z,0.10
2018-11-25T06:07:54.474Z,0.10
2018-11-25T06:10:24.000Z,0.10
2018-11-25T06:12:53.858Z,0.20
2018-11-25T06:15:23.047Z,0.10
2018-11-25T06:17:52.370Z,0.10
2018-11-25T06:20:21.855Z,0.10
2018-11-25T06:22:51.475Z,0.20
2018-11-25T06:25:21.769Z,0.20
2018-11-25T06:27:51.390Z,0.20
2018-11-25T06:30:20.949Z,0.30
2018-11-25T06:32:50.570Z,0.40
2018-11-25T06:35:20.196Z,0.20
2018-11-25T06:37:49.539Z,0.30
2018-11-25T06:40:19.997Z,0.40
2018-11-25T06:42:49.306Z,0.40
2018-11-25T06:45:27.722Z,0.40
2018-11-25T06:47:58.264Z,0.50
2018-11-25T06:50:27.916Z,0.50
2018-11-25T06:52:57.454Z,0.50
2018-11-25T06:55:26.752Z,0.50
2018-11-25T06:57:56.386Z,0.60
2018-11-25T07:00:26.233Z,0.80
2018-11-25T07:02:55.892Z,0.60
2018-11-25T07:05:25.337Z,0.60
2018-11-25T07:07:54.898Z,0.70
2018-11-25T07:10:24.278Z,0.80
2018-11-25T07:12:54.495Z,0.80
2018-11-25T07:15:24.959Z,0.70
2018-11-25T07:17:54.274Z,0.70
2018-11-25T07:20:23.526Z,0.70
2018-11-25T07:22:54.212Z,0.70
2018-11-25T07:25:23.214Z,0.80
2018-11-25T07:27:53.075Z,0.80
2018-11-25T07:30:24.262Z,0.90
2018-11-25T07:32:53.589Z,0.80
2018-11-25T07:35:24.190Z,0.90
2018-11-25T07:37:53.777Z,0.80
2018-11-25T07:40:24.035Z,0.80
2018-11-25T07:42:53.317Z,0.80
2018-11-25T07:45:30.206Z,0.90
2018-11-25T07:47:54.407Z,1.00
2018-11-25T07:50:23.946Z,1.00
2018-11-25T07:52:53.313Z,1.10
2018-11-25T07:55:23.877Z,1.10
2018-11-25T07:57:54.929Z,1.20
2018-11-25T08:00:24.890Z,1.30
2018-11-25T08:02:54.236Z,1.20
2018-11-25T08:05:25.088Z,1.20
2018-11-25T08:07:54.645Z,1.20
2018-11-25T08:10:23.862Z,1.20
2018-11-25T08:12:53.561Z,1.30
2018-11-25T08:15:22.748Z,1.40
2018-11-25T08:17:52.160Z,1.50
2018-11-25T08:20:22.723Z,1.60
2018-11-25T08:22:52.606Z,2.80
2018-11-25T08:25:22.348Z,2.80
2018-11-25T08:27:51.818Z,3.30
2018-11-25T08:30:22.946Z,3.50
2018-11-25T08:32:52.794Z,2.50
2018-11-25T08:35:22.109Z,2.10
2018-11-25T08:37:51.499Z,1.90
2018-11-25T08:40:23.793Z,1.90
2018-11-25T08:42:53.574Z,1.90
2018-11-25T08:45:22.781Z,1.80
2018-11-25T08:47:52.289Z,2.00
2018-11-25T08:50:21.619Z,1.90
2018-11-25T08:52:51.993Z,1.90
2018-11-25T08:55:23.492Z,2.00
2018-11-25T08:57:53.440Z,2.00
2018-11-25T09:00:24.983Z,2.20
2018-11-25T09:02:55.556Z,2.20
2018-11-25T09:05:25.152Z,2.20
2018-11-25T09:07:54.348Z,2.10
2018-11-25T09:10:23.616Z,2.20
2018-11-25T09:12:56.068Z,2.30
2018-11-25T09:15:26.876Z,2.30
2018-11-25T09:17:56.840Z,2.40
2018-11-25T09:20:26.090Z,2.50
2018-11-25T09:22:55.364Z,2.50
2018-11-25T09:25:29.981Z,2.40
2018-11-25T09:28:00.466Z,2.60
2018-11-25T09:30:30.686Z,2.50
2018-11-25T09:32:59.981Z,2.50
2018-11-25T09:35:29.407Z,2.60
2018-11-25T09:37:58.799Z,2.70
2018-11-25T09:40:28.945Z,2.80
2018-11-25T09:42:58.758Z,2.90
2018-11-25T09:45:28.859Z,2.80
2018-11-25T09:47:58.318Z,2.90
2018-11-25T09:50:27.767Z,3.00
2018-11-25T09:53:03.777Z,3.10
2018-11-25T09:55:34.469Z,3.10
2018-11-25T09:58:04.250Z,3.20
2018-11-25T10:00:35.214Z,3.30
2018-11-25T10:03:07.281Z,3.30
2018-11-25T10:05:37.344Z,3.30
2018-11-25T10:08:06.841Z,3.40
2018-11-25T10:10:36.170Z,3.40
2018-11-25T10:13:06.137Z,3.50
2018-11-25T10:15:35.482Z,3.60
2018-11-25T10:18:05.029Z,3.60
2018-11-25T10:20:34.794Z,3.60
2018-11-25T10:23:04.138Z,3.70
2018-11-25T10:25:33.474Z,3.80
2018-11-25T10:28:03.002Z,3.80
2018-11-25T10:30:32.367Z,3.90
2018-11-25T10:33:03.348Z,3.90
2018-11-25T10:35:32.604Z,3.90
2018-11-25T10:38:01.920Z,3.90
2018-11-25T10:40:31.205Z,3.90
2018-11-25T10:43:00.429Z,4.00
2018-11-25T10:45:29.944Z,4.00
2018-11-25T10:48:00.059Z,4.00
2018-11-25T10:50:29.023Z,4.00
2018-11-25T10:52:58.273Z,4.00
2018-11-25T10:55:27.522Z,4.00
2018-11-25T10:57:57.075Z,4.00
2018-11-25T11:00:34.249Z,4.00
2018-11-25T11:03:10.131Z,4.00
2018-11-25T11:05:44.971Z,4.00
2018-11-25T11:08:14.318Z,3.90
2018-11-25T11:10:44.246Z,3.90
2018-11-25T11:13:13.507Z,3.80
2018-11-25T11:15:43.015Z,3.90
2018-11-25T11:18:12.327Z,3.90
2018-11-25T11:20:41.606Z,4.00
2018-11-25T11:23:10.824Z,4.10
2018-11-25T11:25:40.133Z,4.10
2018-11-25T11:28:09.364Z,4.10
2018-11-25T11:30:38.573Z,4.20
2018-11-25T11:33:08.149Z,4.30
2018-11-25T11:35:37.345Z,4.30
2018-11-25T11:38:06.721Z,4.30
2018-11-25T11:40:36.055Z,4.30
2018-11-25T11:43:06.068Z,4.30
2018-11-25T11:45:36.793Z,4.40
2018-11-25T11:48:06.955Z,4.50
2018-11-25T11:50:36.417Z,4.50
2018-11-25T11:53:07.633Z,4.50
2018-11-25T11:55:37.027Z,4.50
2018-11-25T11:58:06.756Z,4.60
2018-11-25T12:00:35.951Z,4.60
2018-11-25T12:03:05.503Z,4.60
2018-11-25T12:05:35.154Z,4.60
2018-11-25T12:08:05.630Z,4.60
2018-11-25T12:10:35.836Z,4.60
2018-11-25T12:13:06.104Z,4.60
2018-11-25T12:15:35.314Z,4.60
2018-11-25T12:18:05.200Z,4.70
2018-11-25T12:20:34.483Z,4.70
2018-11-25T12:23:04.059Z,4.70
2018-11-25T12:25:33.405Z,4.70
2018-11-25T12:28:02.912Z,4.70
2018-11-25T12:30:32.433Z,4.70
2018-11-25T12:33:01.799Z,4.80
2018-11-25T12:35:30.791Z,4.80
2018-11-25T12:38:01.030Z,4.70
2018-11-25T12:40:30.386Z,4.70
2018-11-25T12:42:59.665Z,4.70
2018-11-25T12:45:29.262Z,4.70
2018-11-25T12:47:58.575Z,4.80
2018-11-25T12:50:27.907Z,4.80
2018-11-25T12:52:57.757Z,4.80
2018-11-25T12:55:28.033Z,4.80
2018-11-25T12:57:57.910Z,4.80
2018-11-25T13:00:34.903Z,4.90
2018-11-25T13:03:04.546Z,4.90
2018-11-25T13:05:34.750Z,4.80
2018-11-25T13:08:04.093Z,4.80
2018-11-25T13:10:34.265Z,4.80
2018-11-25T13:13:03.786Z,4.90
2018-11-25T13:15:33.442Z,4.80
2018-11-25T13:18:03.489Z,4.80
2018-11-25T13:20:32.837Z,4.70
2018-11-25T13:23:02.284Z,4.80
2018-11-25T13:25:32.095Z,4.80
2018-11-25T13:28:01.807Z,4.90
2018-11-25T13:30:32.176Z,4.90
2018-11-25T13:33:02.903Z,4.90
2018-11-25T13:35:36.130Z,4.80
2018-11-25T13:38:06.989Z,4.80
2018-11-25T13:40:36.903Z,4.90
2018-11-25T13:43:07.403Z,4.80
2018-11-25T13:45:36.623Z,4.80
2018-11-25T13:48:06.951Z,4.80
2018-11-25T13:50:36.341Z,4.90
2018-11-25T13:53:06.732Z,4.90
2018-11-25T13:55:37.306Z,4.80
2018-11-25T13:58:07.215Z,4.80
2018-11-25T14:00:41.718Z,4.70
2018-11-25T14:03:13.330Z,4.90
2018-11-25T14:05:42.999Z,5.00
2018-11-25T14:08:12.282Z,4.80
2018-11-25T14:10:41.500Z,4.80
2018-11-25T14:13:10.897Z,4.90
2018-11-25T14:15:40.536Z,4.90
2018-11-25T14:18:09.809Z,4.70
2018-11-25T14:20:39.113Z,4.80
2018-11-25T14:23:08.329Z,4.70
2018-11-25T14:25:38.988Z,4.80
2018-11-25T14:28:10.279Z,4.80
2018-11-25T14:30:40.728Z,4.80
2018-11-25T14:33:10.544Z,4.80
2018-11-25T14:35:40.184Z,4.90
2018-11-25T14:38:09.532Z,5.00
2018-11-25T14:40:39.091Z,5.10
2018-11-25T14:43:08.683Z,5.00
2018-11-25T14:45:38.146Z,5.00
2018-11-25T14:48:07.961Z,5.10
2018-11-25T14:50:37.541Z,5.10
2018-11-25T14:53:06.928Z,5.00
2018-11-25T14:55:36.409Z,4.80
2018-11-25T14:58:05.952Z,4.90
2018-11-25T15:00:35.236Z,5.00
2018-11-25T15:03:05.867Z,4.90
2018-11-25T15:05:44.359Z,4.80
2018-11-25T15:08:17.074Z,4.70
2018-11-25T15:10:46.598Z,4.70
2018-11-25T15:13:15.926Z,4.70
2018-11-25T15:15:45.185Z,4.70
2018-11-25T15:18:14.448Z,4.60
2018-11-25T15:20:44.447Z,4.50
2018-11-25T15:23:15.354Z,4.70
2018-11-25T15:25:47.277Z,4.80
2018-11-25T15:28:16.929Z,4.60
2018-11-25T15:30:46.660Z,4.60
2018-11-25T15:33:15.902Z,4.50
2018-11-25T15:35:45.224Z,4.50
2018-11-25T15:38:14.622Z,4.60
2018-11-25T15:40:44.020Z,4.60
2018-11-25T15:43:13.507Z,4.60
2018-11-25T15:45:42.817Z,4.40
2018-11-25T15:48:17.324Z,4.40
2018-11-25T15:50:47.679Z,4.40
2018-11-25T15:53:18.053Z,4.30
2018-11-25T15:55:47.915Z,4.30
2018-11-25T15:58:17.234Z,4.40
2018-11-25T16:00:46.509Z,4.60
2018-11-25T16:03:15.965Z,4.60
2018-11-25T16:05:48.082Z,4.50
2018-11-25T16:08:17.596Z,4.70
2018-11-25T16:10:46.952Z,4.90
2018-11-25T16:13:16.234Z,4.80
2018-11-25T16:15:45.693Z,4.70
2018-11-25T16:18:15.065Z,4.60
2018-11-25T16:20:44.621Z,4.50
2018-11-25T16:23:14.041Z,4.70
2018-11-25T16:25:46.715Z,4.50
2018-11-25T16:28:37.084Z,4.50
2018-11-25T16:31:06.662Z,4.60
2018-11-25T16:33:35.909Z,4.60
2018-11-25T16:36:05.585Z,4.60
2018-11-25T16:38:34.933Z,4.50
2018-11-25T16:41:04.601Z,4.60
2018-11-25T16:43:33.847Z,4.50
2018-11-25T16:46:07.859Z,4.40
2018-11-25T16:48:37.139Z,4.50
2018-11-25T16:51:06.949Z,4.50
2018-11-25T16:53:36.397Z,4.30
2018-11-25T16:56:06.123Z,4.30
2018-11-25T16:58:37.259Z,4.30
2018-11-25T17:01:10.228Z,4.30
2018-11-25T17:03:37.383Z,4.30
2018-11-25T17:06:07.571Z,4.20
2018-11-25T17:08:38.581Z,4.30
2018-11-25T17:11:08.286Z,4.30
2018-11-25T17:13:37.556Z,4.40
2018-11-25T17:16:08.219Z,4.30
2018-11-25T17:18:38.186Z,4.30
2018-11-25T17:21:07.386Z,4.20
2018-11-25T17:23:36.630Z,4.20
2018-11-25T17:26:07.258Z,4.20
2018-11-25T17:28:36.478Z,4.30
2018-11-25T17:31:06.066Z,4.40
2018-11-25T17:33:35.677Z,4.30
2018-11-25T17:36:05.122Z,4.20
2018-11-25T17:38:34.439Z,4.20
2018-11-25T17:41:04.218Z,4.20
2018-11-25T17:43:33.702Z,4.20
2018-11-25T17:46:04.123Z,4.30
2018-11-25T17:48:33.513Z,4.20
2018-11-25T17:51:02.842Z,4.20
2018-11-25T17:53:32.335Z,4.20
2018-11-25T17:56:02.055Z,4.20
2018-11-25T17:58:31.371Z,4.30
2018-11-25T18:01:04.306Z,4.40
2018-11-25T18:03:35.292Z,4.30
2018-11-25T18:06:04.695Z,4.20
2018-11-25T18:08:34.089Z,4.40
2018-11-25T18:11:03.325Z,4.40
2018-11-25T18:13:35.337Z,4.30
2018-11-25T18:16:06.237Z,4.40
2018-11-25T18:18:52.017Z,4.40
2018-11-25T18:21:24.247Z,4.40
2018-11-25T18:23:54.199Z,4.60
2018-11-25T18:26:23.540Z,4.40
2018-11-25T18:28:52.829Z,4.30
2018-11-25T18:31:22.742Z,4.30
2018-11-25T18:33:52.022Z,4.50
2018-11-25T18:36:21.366Z,4.50
2018-11-25T18:38:50.698Z,4.60
2018-11-25T18:41:21.862Z,4.70
2018-11-25T18:43:49.754Z,4.60
2018-11-25T18:46:19.097Z,4.50
2018-11-25T18:48:49.374Z,4.40
2018-11-25T18:51:18.676Z,4.50
2018-11-25T18:53:48.572Z,4.40
2018-11-25T18:56:17.634Z,4.40
2018-11-25T18:58:46.953Z,4.60
2018-11-25T19:01:22.799Z,4.60
2018-11-25T19:03:52.182Z,4.60
2018-11-25T19:06:21.355Z,4.60
2018-11-25T19:08:50.707Z,4.50
2018-11-25T19:11:20.278Z,4.50
2018-11-25T19:13:49.568Z,4.50
2018-11-25T19:16:19.251Z,4.40
2018-11-25T19:18:48.532Z,4.50
2018-11-25T19:21:17.825Z,4.40
2018-11-25T19:23:47.227Z,4.50
2018-11-25T19:26:16.516Z,4.60
2018-11-25T19:28:45.792Z,4.60
2018-11-25T19:31:15.088Z,4.50
2018-11-25T19:33:44.831Z,4.50
2018-11-25T19:36:13.912Z,4.50
2018-11-25T19:38:43.205Z,4.40
2018-11-25T19:41:12.661Z,4.40
2018-11-25T19:43:41.892Z,4.50
2018-11-25T19:46:12.427Z,4.40
2018-11-25T19:48:41.698Z,4.40
2018-11-25T19:51:17.305Z,4.40
2018-11-25T19:53:40.392Z,4.60
2018-11-25T19:56:09.835Z,4.50
2018-11-25T19:58:39.016Z,4.50
2018-11-25T20:01:08.283Z,4.40
2018-11-25T20:03:37.492Z,4.40
2018-11-25T20:06:06.762Z,4.30
2018-11-25T20:08:36.039Z,4.60
2018-11-25T20:11:05.902Z,4.50
2018-11-25T20:13:35.377Z,4.30
2018-11-25T20:16:10.201Z,4.30
2018-11-25T20:18:39.469Z,4.30
2018-11-25T20:21:14.371Z,4.30
2018-11-25T20:23:43.646Z,4.40
2018-11-25T20:26:12.871Z,4.40
2018-11-25T20:28:42.548Z,4.40
2018-11-25T20:31:11.851Z,4.30
2018-11-25T20:33:51.485Z,4.30
2018-11-25T20:36:16.255Z,4.20
2018-11-25T20:38:51.233Z,4.30
2018-11-25T20:41:20.514Z,4.20
2018-11-25T20:43:49.967Z,4.20
2018-11-25T20:46:24.281Z,4.20
2018-11-25T20:48:53.529Z,4.10
2018-11-25T20:51:27.978Z,4.20
2018-11-25T20:53:58.475Z,4.30
2018-11-25T20:56:28.066Z,4.20
2018-11-25T20:58:57.392Z,4.20
2018-11-25T21:01:26.712Z,4.10
2018-11-25T21:03:57.242Z,4.30
2018-11-25T21:06:26.926Z,4.30
2018-11-25T21:08:56.250Z,4.40
2018-11-25T21:11:25.537Z,4.50
2018-11-25T21:13:54.847Z,4.40
2018-11-25T21:16:25.013Z,4.40
2018-11-25T21:18:54.995Z,4.50
2018-11-25T21:21:24.675Z,4.30
2018-11-25T21:23:55.042Z,4.40
2018-11-25T21:26:24.292Z,4.50
2018-11-25T21:28:53.964Z,4.50
2018-11-25T21:31:23.193Z,4.40
2018-11-25T21:33:53.442Z,4.30
2018-11-25T21:36:23.037Z,4.30
2018-11-25T21:38:52.265Z,4.20
2018-11-25T21:41:21.216Z,4.20
2018-11-25T21:43:50.516Z,4.40
2018-11-25T21:46:19.930Z,4.40
2018-11-25T21:48:49.470Z,4.40
2018-11-25T21:51:20.890Z,4.20
2018-11-25T21:53:50.720Z,4.20
2018-11-25T21:56:20.028Z,4.20
2018-11-25T21:58:49.953Z,4.30
2018-11-25T22:01:19.257Z,4.30
2018-11-25T22:03:49.065Z,4.30
2018-11-25T22:06:18.290Z,4.40
2018-11-25T22:08:47.593Z,4.50
2018-11-25T22:11:17.022Z,4.30
2018-11-25T22:13:47.348Z,4.30
2018-11-25T22:16:16.521Z,4.30
2018-11-25T22:18:46.068Z,4.30
2018-11-25T22:21:15.353Z,4.40
2018-11-25T22:23:44.594Z,4.40
2018-11-25T22:26:14.016Z,4.30
2018-11-25T22:28:43.276Z,4.20
2018-11-25T22:31:12.450Z,4.30
2018-11-25T22:33:41.678Z,4.40
2018-11-25T22:36:11.225Z,4.50
2018-11-25T22:38:40.687Z,4.40
2018-11-25T22:41:10.370Z,4.40
2018-11-25T22:43:39.448Z,4.40
2018-11-25T22:46:08.766Z,4.30
2018-11-25T22:48:38.035Z,4.30
2018-11-25T22:51:07.337Z,4.30
2018-11-25T22:53:36.605Z,4.40
2018-11-25T22:56:06.160Z,4.40
2018-11-25T22:58:35.399Z,4.40
2018-11-25T23:01:04.697Z,4.40
2018-11-25T23:03:34.193Z,4.30
2018-11-25T23:06:14.677Z,4.20
2018-11-25T23:08:44.238Z,4.20
2018-11-25T23:11:13.516Z,4.20
2018-11-25T23:13:43.125Z,4.30
2018-11-25T23:16:12.670Z,4.20
2018-11-25T23:18:42.402Z,4.30
2018-11-25T23:21:11.632Z,4.20
2018-11-25T23:23:40.910Z,4.30
2018-11-25T23:26:10.430Z,4.30
2018-11-25T23:28:39.670Z,4.30
2018-11-25T23:31:08.878Z,4.20
2018-11-25T23:33:38.333Z,4.20
2018-11-25T23:36:07.902Z,4.20
2018-11-25T23:38:37.368Z,4.20
2018-11-25T23:41:07.432Z,4.10
2018-11-25T23:43:36.653Z,4.10
2018-11-25T23:46:05.895Z,4.10
2018-11-25T23:48:35.515Z,4.10
2018-11-25T23:51:05.587Z,4.10
2018-11-25T23:53:34.821Z,4.10
2018-11-25T23:56:04.142Z,4.10
2018-11-25T23:58:33.641Z,4.20
